createdAt,value
2022-10-21T00:00:52.248Z,1002.13
2022-10-21T00:01:52.229Z,1002.13
2022-10-21T00:02:52.201Z,1002.15
2022-10-21T00:03:52.181Z,1002.14
2022-10-21T00:04:52.154Z,1002.13
2022-10-21T00:05:52.132Z,1002.09
2022-10-21T00:06:52.106Z,1002.07
2022-10-21T00:07:52.085Z,1002.08
2022-10-21T00:08:52.101Z,1002.02
2022-10-21T00:09:52.040Z,1002.03
2022-10-21T00:10:52.036Z,1002.00
2022-10-21T00:11:51.997Z,1001.98
2022-10-21T00:12:51.972Z,1001.96
2022-10-21T00:13:51.945Z,1001.96
2022-10-21T00:14:54.868Z,1001.99
2022-10-21T00:15:51.905Z,1002.00
2022-10-21T00:16:51.873Z,1001.98
2022-10-21T00:17:51.854Z,1001.98
2022-10-21T00:18:51.828Z,1001.95
2022-10-21T00:19:51.806Z,1001.91
2022-10-21T00:20:51.782Z,1001.88
2022-10-21T00:21:51.763Z,1001.90
2022-10-21T00:22:51.735Z,1001.88
2022-10-21T00:23:51.713Z,1001.86
2022-10-21T00:24:51.688Z,1001.80
2022-10-21T00:25:51.667Z,1001.79
2022-10-21T00:26:51.660Z,1001.79
2022-10-21T00:27:51.619Z,1001.79
2022-10-21T00:28:51.593Z,1001.78
2022-10-21T00:29:51.576Z,1001.77
2022-10-21T00:30:51.551Z,1001.78
2022-10-21T00:31:51.525Z,1001.71
2022-10-21T00:32:51.501Z,1001.74
2022-10-21T00:33:51.481Z,1001.70
2022-10-21T00:34:51.454Z,1001.65
2022-10-21T00:35:51.431Z,1001.68
2022-10-21T00:36:51.407Z,1001.67
2022-10-21T00:37:51.385Z,1001.63
2022-10-21T00:38:51.361Z,1001.66
2022-10-21T00:39:51.344Z,1001.64
2022-10-21T00:40:51.314Z,1001.68
2022-10-21T00:41:51.294Z,1001.68
2022-10-21T00:42:51.287Z,1001.65
2022-10-21T00:43:51.246Z,1001.64
2022-10-21T00:44:51.228Z,1001.63
2022-10-21T00:45:51.199Z,1001.63
2022-10-21T00:46:51.174Z,1001.57
2022-10-21T00:47:51.154Z,1001.53
2022-10-21T00:48:51.130Z,1001.55
2022-10-21T00:49:51.106Z,1001.51
2022-10-21T00:50:51.078Z,1001.47
2022-10-21T00:51:51.059Z,1001.46
2022-10-21T00:52:51.032Z,1001.48
2022-10-21T00:53:51.014Z,1001.45
2022-10-21T00:54:50.987Z,1001.45
2022-10-21T00:55:50.967Z,1001.46
2022-10-21T00:57:50.920Z,1001.40
2022-10-21T00:58:50.917Z,1001.42
2022-10-21T00:59:50.870Z,1001.40
2022-10-21T01:00:50.926Z,1001.46
2022-10-21T01:01:50.823Z,1001.45
2022-10-21T01:02:50.799Z,1001.46
2022-10-21T01:03:50.777Z,1001.45
2022-10-21T01:04:50.754Z,1001.42
2022-10-21T01:06:50.707Z,1001.40
2022-10-21T01:07:50.683Z,1001.39
2022-10-21T01:08:50.744Z,1001.41
2022-10-21T01:09:50.635Z,1001.40
2022-10-21T01:10:50.614Z,1001.37
2022-10-21T01:11:50.591Z,1001.33
2022-10-21T01:12:50.569Z,1001.29
2022-10-21T01:13:50.542Z,1001.30
2022-10-21T01:14:50.570Z,1001.36
2022-10-21T01:15:50.497Z,1001.37
2022-10-21T01:16:50.473Z,1001.37
2022-10-21T01:17:50.823Z,1001.40
2022-10-21T01:18:50.426Z,1001.42
2022-10-21T01:19:50.404Z,1001.41
2022-10-21T01:20:50.384Z,1001.38
2022-10-21T01:21:50.355Z,1001.37
2022-10-21T01:22:50.334Z,1001.39
2022-10-21T01:23:50.312Z,1001.42
2022-10-21T01:24:50.290Z,1001.42
2022-10-21T01:25:50.264Z,1001.41
2022-10-21T01:26:50.241Z,1001.38
2022-10-21T01:27:50.221Z,1001.37
2022-10-21T01:28:50.201Z,1001.39
2022-10-21T01:29:50.172Z,1001.36
2022-10-21T01:30:50.166Z,1001.37
2022-10-21T01:31:50.126Z,1001.38
2022-10-21T01:32:50.108Z,1001.39
2022-10-21T01:33:50.076Z,1001.39
2022-10-21T01:34:50.057Z,1001.38
2022-10-21T01:35:50.031Z,1001.37
2022-10-21T01:36:50.012Z,1001.36
2022-10-21T01:37:50.005Z,1001.34
2022-10-21T01:38:49.964Z,1001.34
2022-10-21T01:39:49.939Z,1001.27
2022-10-21T01:40:49.920Z,1001.31
2022-10-21T01:41:49.894Z,1001.27
2022-10-21T01:42:49.869Z,1001.23
2022-10-21T01:43:49.847Z,1001.20
2022-10-21T01:44:49.823Z,1001.20
2022-10-21T01:45:49.798Z,1001.21
2022-10-21T01:46:49.796Z,1001.21
2022-10-21T01:47:49.756Z,1001.23
2022-10-21T01:48:49.731Z,1001.22
2022-10-21T01:49:49.707Z,1001.22
2022-10-21T01:50:49.685Z,1001.28
2022-10-21T01:51:49.661Z,1001.25
2022-10-21T01:52:49.639Z,1001.27
2022-10-21T01:53:49.615Z,1001.25
2022-10-21T01:54:49.592Z,1001.23
2022-10-21T01:55:49.569Z,1001.20
2022-10-21T01:56:49.548Z,1001.24
2022-10-21T01:57:49.520Z,1001.21
2022-10-21T01:58:49.498Z,1001.26
2022-10-21T01:59:49.475Z,1001.22
2022-10-21T02:00:49.492Z,1001.23
2022-10-21T02:01:49.429Z,1001.17
2022-10-21T02:02:49.424Z,1001.16
2022-10-21T02:03:49.382Z,1001.16
2022-10-21T02:04:49.361Z,1001.08
2022-10-21T02:05:49.337Z,1001.06
2022-10-21T02:06:49.315Z,1001.06
2022-10-21T02:07:49.290Z,1001.05
2022-10-21T02:08:49.371Z,1000.98
2022-10-21T02:09:49.246Z,1000.94
2022-10-21T02:10:49.219Z,1000.95
2022-10-21T02:11:49.196Z,1000.93
2022-10-21T02:12:49.174Z,1000.89
2022-10-21T02:13:49.151Z,1000.87
2022-10-21T02:14:49.130Z,1000.88
2022-10-21T02:15:49.103Z,1000.86
2022-10-21T02:16:49.081Z,1000.85
2022-10-21T02:17:49.056Z,1000.82
2022-10-21T02:18:49.056Z,1000.81
2022-10-21T02:19:49.011Z,1000.75
2022-10-21T02:20:48.990Z,1000.75
2022-10-21T02:21:48.966Z,1000.76
2022-10-21T02:22:48.944Z,1000.68
2022-10-21T02:23:48.919Z,1000.70
2022-10-21T02:24:48.898Z,1000.71
2022-10-21T02:25:48.873Z,1000.67
2022-10-21T02:26:48.851Z,1000.68
2022-10-21T02:27:48.828Z,1000.69
2022-10-21T02:28:48.806Z,1000.63
2022-10-21T02:29:48.779Z,1000.67
2022-10-21T02:30:48.762Z,1000.63
2022-10-21T02:31:48.735Z,1000.68
2022-10-21T02:32:48.714Z,1000.63
2022-10-21T02:33:48.687Z,1000.64
2022-10-21T02:34:48.688Z,1000.59
2022-10-21T02:35:48.641Z,1000.57
2022-10-21T02:36:48.621Z,1000.59
2022-10-21T02:37:48.598Z,1000.57
2022-10-21T02:38:48.577Z,1000.60
2022-10-21T02:39:48.549Z,1000.57
2022-10-21T02:40:48.527Z,1000.55
2022-10-21T02:41:48.505Z,1000.55
2022-10-21T02:42:48.481Z,1000.56
2022-10-21T02:43:48.460Z,1000.53
2022-10-21T02:44:48.437Z,1000.53
2022-10-21T02:45:48.411Z,1000.48
2022-10-21T02:46:48.391Z,1000.46
2022-10-21T02:47:48.362Z,1000.45
2022-10-21T02:48:48.343Z,1000.43
2022-10-21T02:49:48.318Z,1000.41
2022-10-21T02:50:48.313Z,1000.37
2022-10-21T02:51:48.275Z,1000.34
2022-10-21T02:52:48.252Z,1000.31
2022-10-21T02:53:48.226Z,1000.27
2022-10-21T02:54:48.203Z,1000.26
2022-10-21T02:55:48.179Z,1000.20
2022-10-21T02:56:48.167Z,1000.27
2022-10-21T02:57:48.135Z,1000.26
2022-10-21T02:58:48.112Z,1000.30
2022-10-21T02:59:48.090Z,1000.34
2022-10-21T03:00:48.144Z,1000.29
2022-10-21T03:01:48.042Z,1000.33
2022-10-21T03:02:48.021Z,1000.29
2022-10-21T03:03:47.996Z,1000.27
2022-10-21T03:04:47.974Z,1000.27
2022-10-21T03:05:47.956Z,1000.28
2022-10-21T03:06:47.946Z,1000.27
2022-10-21T03:07:47.903Z,1000.32
2022-10-21T03:08:47.924Z,1000.32
2022-10-21T03:09:47.857Z,1000.33
2022-10-21T03:10:49.219Z,1000.35
2022-10-21T03:11:47.813Z,1000.38
2022-10-21T03:12:47.790Z,1000.39
2022-10-21T03:13:47.766Z,1000.37
2022-10-21T03:14:47.743Z,1000.35
2022-10-21T03:15:47.718Z,1000.35
2022-10-21T03:16:47.699Z,1000.32
2022-10-21T03:17:47.673Z,1000.34
2022-10-21T03:18:47.663Z,1000.33
2022-10-21T03:19:47.627Z,1000.36
2022-10-21T03:20:47.638Z,1000.35
2022-10-21T03:21:47.582Z,1000.33
2022-10-21T03:22:47.578Z,1000.38
2022-10-21T03:23:47.537Z,1000.36
2022-10-21T03:24:47.516Z,1000.40
2022-10-21T03:25:47.493Z,1000.33
2022-10-21T03:26:47.469Z,1000.29
2022-10-21T03:27:47.444Z,1000.30
2022-10-21T03:28:47.427Z,1000.35
2022-10-21T03:29:47.400Z,1000.33
2022-10-21T03:30:47.378Z,1000.30
2022-10-21T03:31:47.351Z,1000.29
2022-10-21T03:32:47.330Z,1000.30
2022-10-21T03:33:47.307Z,1000.30
2022-10-21T03:34:47.284Z,1000.28
2022-10-21T03:35:47.267Z,1000.29
2022-10-21T03:36:47.242Z,1000.23
2022-10-21T03:37:47.256Z,1000.23
2022-10-21T03:38:47.211Z,1000.18
2022-10-21T03:39:47.169Z,1000.20
2022-10-21T03:40:47.149Z,1000.19
2022-10-21T03:41:47.125Z,1000.20
2022-10-21T03:42:47.103Z,1000.22
2022-10-21T03:43:47.077Z,1000.20
2022-10-21T03:44:47.057Z,1000.18
2022-10-21T03:45:47.032Z,1000.22
2022-10-21T03:46:47.010Z,1000.20
2022-10-21T03:47:46.988Z,1000.20
2022-10-21T03:48:46.967Z,1000.17
2022-10-21T03:49:47.054Z,1000.18
2022-10-21T03:50:46.919Z,1000.15
2022-10-21T03:51:46.902Z,1000.17
2022-10-21T03:52:46.875Z,1000.21
2022-10-21T03:53:46.851Z,1000.20
2022-10-21T03:54:46.844Z,1000.23
2022-10-21T03:55:46.804Z,1000.22
2022-10-21T03:56:46.783Z,1000.20
2022-10-21T03:57:46.760Z,1000.13
2022-10-21T03:58:46.739Z,1000.11
2022-10-21T03:59:46.712Z,1000.09
2022-10-21T04:00:46.694Z,1000.11
2022-10-21T04:01:46.786Z,1000.12
2022-10-21T04:02:46.648Z,1000.14
2022-10-21T04:03:46.623Z,1000.13
2022-10-21T04:04:46.601Z,1000.16
2022-10-21T04:05:46.577Z,1000.15
2022-10-21T04:06:46.558Z,1000.16
2022-10-21T04:07:50.627Z,1000.16
2022-10-21T04:08:46.613Z,1000.13
2022-10-21T04:09:46.484Z,1000.16
2022-10-21T04:10:46.571Z,1000.13
2022-10-21T04:11:46.442Z,1000.11
2022-10-21T04:12:46.421Z,1000.08
2022-10-21T04:13:46.394Z,1000.06
2022-10-21T04:14:46.375Z,1000.07
2022-10-21T04:15:46.350Z,1000.02
2022-10-21T04:16:48.010Z,1000.04
2022-10-21T04:17:46.306Z,1000.06
2022-10-21T04:18:46.287Z,1000.04
2022-10-21T04:19:46.259Z,999.99
2022-10-21T04:20:46.237Z,1000.03
2022-10-21T04:21:46.214Z,999.96
2022-10-21T04:22:46.190Z,999.95
2022-10-21T04:23:46.171Z,999.92
2022-10-21T04:24:46.149Z,999.93
2022-10-21T04:25:46.120Z,999.92
2022-10-21T04:26:46.119Z,999.91
2022-10-21T04:27:46.076Z,999.92
2022-10-21T04:28:46.056Z,999.90
2022-10-21T04:29:46.030Z,999.90
2022-10-21T04:30:46.008Z,999.93
2022-10-21T04:31:46.032Z,999.92
2022-10-21T04:32:45.965Z,999.90
2022-10-21T04:33:45.942Z,999.90
2022-10-21T04:34:45.918Z,999.84
2022-10-21T04:35:45.894Z,999.87
2022-10-21T04:36:45.872Z,999.87
2022-10-21T04:37:45.848Z,999.87
2022-10-21T04:38:45.828Z,999.87
2022-10-21T04:39:45.800Z,999.90
2022-10-21T04:40:45.782Z,999.88
2022-10-21T04:41:45.762Z,999.91
2022-10-21T04:42:45.754Z,999.94
2022-10-21T04:43:45.709Z,999.95
2022-10-21T04:44:45.687Z,999.96
2022-10-21T04:45:45.665Z,999.96
2022-10-21T04:46:45.642Z,999.98
2022-10-21T04:47:45.617Z,999.96
2022-10-21T04:48:45.597Z,999.96
2022-10-21T04:49:45.572Z,999.98
2022-10-21T04:50:45.548Z,1000.00
2022-10-21T04:51:45.525Z,999.97
2022-10-21T04:52:45.503Z,999.95
2022-10-21T04:53:45.479Z,999.91
2022-10-21T04:54:45.460Z,999.92
2022-10-21T04:55:45.437Z,999.95
2022-10-21T04:56:45.414Z,999.94
2022-10-21T04:57:45.390Z,999.91
2022-10-21T04:58:45.384Z,999.91
2022-10-21T04:59:45.341Z,999.88
2022-10-21T05:00:45.378Z,999.89
2022-10-21T05:01:45.299Z,999.87
2022-10-21T05:02:45.273Z,999.85
2022-10-21T05:03:45.248Z,999.79
2022-10-21T05:04:45.228Z,999.78
2022-10-21T05:05:45.205Z,999.77
2022-10-21T05:06:45.182Z,999.75
2022-10-21T05:07:45.156Z,999.79
2022-10-21T05:08:45.220Z,999.76
2022-10-21T05:09:45.112Z,999.73
2022-10-21T05:10:45.089Z,999.78
2022-10-21T05:11:45.067Z,999.77
2022-10-21T05:12:45.052Z,999.78
2022-10-21T05:13:45.018Z,999.79
2022-10-21T05:14:45.014Z,999.80
2022-10-21T05:15:44.972Z,999.76
2022-10-21T05:16:44.951Z,999.79
2022-10-21T05:17:44.926Z,999.82
2022-10-21T05:18:44.903Z,999.85
2022-10-21T05:19:44.881Z,999.89
2022-10-21T05:20:44.859Z,999.93
2022-10-21T05:21:44.840Z,999.93
2022-10-21T05:22:44.811Z,999.94
2022-10-21T05:23:44.787Z,999.89
2022-10-21T05:24:44.763Z,999.91
2022-10-21T05:25:44.743Z,999.91
2022-10-21T05:26:44.719Z,999.91
2022-10-21T05:27:44.695Z,999.91
2022-10-21T05:28:44.672Z,999.85
2022-10-21T05:29:44.652Z,999.86
2022-10-21T05:30:44.644Z,999.86
2022-10-21T05:31:44.605Z,999.88
2022-10-21T05:32:44.578Z,999.85
2022-10-21T05:33:44.558Z,999.82
2022-10-21T05:34:44.529Z,999.84
2022-10-21T05:35:44.511Z,999.80
2022-10-21T05:36:44.485Z,999.84
2022-10-21T05:37:44.466Z,999.82
2022-10-21T05:38:44.440Z,999.83
2022-10-21T05:39:44.422Z,999.84
2022-10-21T05:40:44.391Z,999.84
2022-10-21T05:41:47.781Z,999.87
2022-10-21T05:42:44.347Z,999.84
2022-10-21T05:43:44.325Z,999.89
2022-10-21T05:44:44.303Z,999.88
2022-10-21T05:45:44.278Z,999.91
2022-10-21T05:46:44.269Z,999.90
2022-10-21T05:47:44.232Z,999.90
2022-10-21T05:48:44.286Z,999.90
2022-10-21T05:49:44.185Z,999.86
2022-10-21T05:50:44.161Z,999.85
2022-10-21T05:51:44.139Z,999.84
2022-10-21T05:52:44.115Z,999.90
2022-10-21T05:53:44.092Z,999.80
2022-10-21T05:54:44.066Z,999.78
2022-10-21T05:55:44.046Z,999.77
2022-10-21T05:56:44.020Z,999.74
2022-10-21T05:57:44.087Z,999.78
2022-10-21T05:58:43.978Z,999.83
2022-10-21T05:59:43.952Z,999.83
2022-10-21T06:00:44.052Z,999.82
2022-10-21T06:01:43.907Z,999.89
2022-10-21T06:02:43.909Z,999.85
2022-10-21T06:03:43.862Z,999.82
2022-10-21T06:04:43.840Z,999.79
2022-10-21T06:05:43.816Z,999.78
2022-10-21T06:06:43.936Z,999.80
2022-10-21T06:07:43.766Z,999.81
2022-10-21T06:08:43.850Z,999.84
2022-10-21T06:09:43.721Z,999.79
2022-10-21T06:10:43.695Z,999.77
2022-10-21T06:11:43.677Z,999.70
2022-10-21T06:12:43.649Z,999.70
2022-10-21T06:13:43.630Z,999.67
2022-10-21T06:14:43.601Z,999.69
2022-10-21T06:15:47.432Z,999.69
2022-10-21T06:16:43.556Z,999.70
2022-10-21T06:17:43.533Z,999.75
2022-10-21T06:18:43.528Z,999.73
2022-10-21T06:19:46.015Z,999.76
2022-10-21T06:20:43.462Z,999.76
2022-10-21T06:21:43.441Z,999.78
2022-10-21T06:22:43.474Z,999.76
2022-10-21T06:23:43.412Z,999.71
2022-10-21T06:24:43.385Z,999.76
2022-10-21T06:25:43.403Z,999.70
2022-10-21T06:26:43.320Z,999.66
2022-10-21T06:27:43.300Z,999.68
2022-10-21T06:28:43.277Z,999.66
2022-10-21T06:29:43.256Z,999.67
2022-10-21T06:30:43.227Z,999.73
2022-10-21T06:31:43.224Z,999.70
2022-10-21T06:32:43.180Z,999.74
2022-10-21T06:33:43.161Z,999.73
2022-10-21T06:34:43.148Z,999.71
2022-10-21T06:35:43.123Z,999.73
2022-10-21T06:36:43.090Z,999.70
2022-10-21T06:37:43.067Z,999.69
2022-10-21T06:38:43.044Z,999.73
2022-10-21T06:39:43.019Z,999.74
2022-10-21T06:40:42.995Z,999.78
2022-10-21T06:41:42.973Z,999.73
2022-10-21T06:42:42.950Z,999.75
2022-10-21T06:43:42.982Z,999.75
2022-10-21T06:44:42.904Z,999.74
2022-10-21T06:45:42.878Z,999.77
2022-10-21T06:46:42.855Z,999.81
2022-10-21T06:47:42.858Z,999.84
2022-10-21T06:48:42.807Z,999.86
2022-10-21T06:49:42.783Z,999.83
2022-10-21T06:50:42.840Z,999.83
2022-10-21T06:51:42.738Z,999.86
2022-10-21T06:52:42.715Z,999.84
2022-10-21T06:53:42.691Z,999.88
2022-10-21T06:54:42.666Z,999.85
2022-10-21T06:55:42.644Z,999.92
2022-10-21T06:56:42.624Z,999.91
2022-10-21T06:57:42.597Z,999.90
2022-10-21T06:58:42.574Z,999.93
2022-10-21T06:59:42.550Z,999.93
2022-10-21T07:00:42.527Z,999.93
2022-10-21T07:01:59.131Z,999.89
2022-10-21T07:02:42.478Z,999.92
2022-10-21T07:03:42.457Z,999.93
2022-10-21T07:04:42.433Z,999.91
2022-10-21T07:05:42.411Z,999.91
2022-10-21T07:06:42.491Z,999.88
2022-10-21T07:07:42.474Z,999.86
2022-10-21T07:08:47.137Z,999.83
2022-10-21T07:09:42.392Z,999.83
2022-10-21T07:10:42.291Z,999.86
2022-10-21T07:11:42.269Z,999.85
2022-10-21T07:12:42.247Z,999.90
2022-10-21T07:13:42.224Z,999.88
2022-10-21T07:14:42.198Z,999.90
2022-10-21T07:15:42.230Z,999.91
2022-10-21T07:16:42.149Z,999.91
2022-10-21T07:17:42.317Z,999.93
2022-10-21T07:18:42.731Z,999.93
2022-10-21T07:19:42.084Z,999.95
2022-10-21T07:20:42.059Z,999.99
2022-10-21T07:21:42.036Z,1000.01
2022-10-21T07:22:42.025Z,1000.05
2022-10-21T07:23:41.987Z,1000.06
2022-10-21T07:24:41.961Z,1000.10
2022-10-21T07:25:41.943Z,1000.12
2022-10-21T07:26:41.918Z,1000.14
2022-10-21T07:27:43.566Z,1000.10
2022-10-21T07:28:41.869Z,1000.09
2022-10-21T07:29:41.847Z,1000.08
2022-10-21T07:30:41.821Z,1000.07
2022-10-21T07:31:41.817Z,1000.08
2022-10-21T07:32:41.775Z,1000.09
2022-10-21T07:33:41.755Z,1000.11
2022-10-21T07:34:41.727Z,1000.15
2022-10-21T07:35:41.705Z,1000.16
2022-10-21T07:36:41.684Z,1000.19
2022-10-21T07:37:41.922Z,1000.16
2022-10-21T07:38:41.654Z,1000.17
2022-10-21T07:39:41.621Z,1000.17
2022-10-21T07:40:41.589Z,1000.14
2022-10-21T07:41:41.566Z,1000.23
2022-10-21T07:42:41.541Z,1000.22
2022-10-21T07:43:41.519Z,1000.20
2022-10-21T07:44:41.493Z,1000.24
2022-10-21T07:45:41.477Z,1000.24
2022-10-21T07:46:41.447Z,1000.27
2022-10-21T07:47:41.604Z,1000.28
2022-10-21T07:48:41.400Z,1000.26
2022-10-21T07:49:41.380Z,1000.28
2022-10-21T07:50:41.350Z,1000.25
2022-10-21T07:51:41.334Z,1000.31
2022-10-21T07:52:43.779Z,1000.26
2022-10-21T07:53:41.285Z,1000.32
2022-10-21T07:54:41.278Z,1000.30
2022-10-21T07:55:41.236Z,1000.29
2022-10-21T07:56:41.211Z,1000.27
2022-10-21T07:57:41.193Z,1000.27
2022-10-21T07:58:41.165Z,1000.30
2022-10-21T07:59:41.148Z,1000.35
2022-10-21T08:00:41.161Z,1000.34
2022-10-21T08:01:41.200Z,1000.39
2022-10-21T08:02:41.279Z,1000.42
2022-10-21T08:03:41.051Z,1000.37
2022-10-21T08:04:41.026Z,1000.33
2022-10-21T08:05:41.003Z,1000.32
2022-10-21T08:06:40.980Z,1000.27
2022-10-21T08:07:40.959Z,1000.27
2022-10-21T08:08:40.990Z,1000.23
2022-10-21T08:09:40.912Z,1000.23
2022-10-21T08:10:40.951Z,1000.30
2022-10-21T08:11:40.863Z,1000.30
2022-10-21T08:12:41.219Z,1000.29
2022-10-21T08:13:40.821Z,1000.24
2022-10-21T08:14:40.793Z,1000.25
2022-10-21T08:15:40.771Z,1000.22
2022-10-21T08:16:40.747Z,1000.25
2022-10-21T08:17:40.726Z,1000.25
2022-10-21T08:18:40.699Z,1000.20
2022-10-21T08:19:40.679Z,1000.24
2022-10-21T08:20:40.653Z,1000.23
2022-10-21T08:21:40.632Z,1000.22
2022-10-21T08:22:41.084Z,1000.21
2022-10-21T08:23:40.585Z,1000.20
2022-10-21T08:24:42.396Z,1000.23
2022-10-21T08:25:40.537Z,1000.19
2022-10-21T08:26:40.533Z,1000.22
2022-10-21T08:27:40.490Z,1000.18
2022-10-21T08:28:40.466Z,1000.17
2022-10-21T08:29:40.445Z,1000.18
2022-10-21T08:30:40.419Z,1000.15
2022-10-21T08:31:40.398Z,1000.14
2022-10-21T08:32:40.779Z,1000.15
2022-10-21T08:33:40.353Z,1000.14
2022-10-21T08:34:40.328Z,1000.13
2022-10-21T08:35:40.310Z,1000.15
2022-10-21T08:36:40.283Z,1000.14
2022-10-21T08:37:40.264Z,1000.18
2022-10-21T08:38:40.236Z,1000.21
2022-10-21T08:39:40.215Z,1000.17
2022-10-21T08:40:40.191Z,1000.19
2022-10-21T08:41:40.168Z,1000.19
2022-10-21T08:42:40.617Z,1000.17
2022-10-21T08:43:40.123Z,1000.22
2022-10-21T08:44:40.101Z,1000.23
2022-10-21T08:45:40.079Z,1000.28
2022-10-21T08:46:40.049Z,1000.25
2022-10-21T08:47:40.292Z,1000.32
2022-10-21T08:48:40.007Z,1000.32
2022-10-21T08:49:39.985Z,1000.33
2022-10-21T08:50:39.960Z,1000.34
2022-10-21T08:51:39.936Z,1000.34
2022-10-21T08:52:39.912Z,1000.41
2022-10-21T08:53:39.894Z,1000.42
2022-10-21T08:54:39.868Z,1000.38
2022-10-21T08:55:39.845Z,1000.36
2022-10-21T08:56:39.824Z,1000.37
2022-10-21T08:57:40.079Z,1000.42
2022-10-21T08:58:39.798Z,1000.40
2022-10-21T08:59:39.753Z,1000.43
2022-10-21T09:00:39.729Z,1000.44
2022-10-21T09:01:39.711Z,1000.42
2022-10-21T09:02:39.736Z,1000.36
2022-10-21T09:03:39.665Z,1000.37
2022-10-21T09:04:39.644Z,1000.36
2022-10-21T09:05:39.619Z,1000.35
2022-10-21T09:06:39.595Z,1000.36
2022-10-21T09:07:39.884Z,1000.38
2022-10-21T09:08:39.595Z,1000.40
2022-10-21T09:09:39.528Z,1000.40
2022-10-21T09:10:39.502Z,1000.45
2022-10-21T09:11:39.481Z,1000.46
2022-10-21T09:12:39.459Z,1000.46
2022-10-21T09:13:39.433Z,1000.44
2022-10-21T09:14:39.436Z,1000.48
2022-10-21T09:15:39.389Z,1000.45
2022-10-21T09:16:39.369Z,1000.47
2022-10-21T09:17:39.732Z,1000.48
2022-10-21T09:18:39.319Z,1000.50
2022-10-21T09:19:39.298Z,1000.51
2022-10-21T09:20:39.274Z,1000.51
2022-10-21T09:21:39.257Z,1000.47
2022-10-21T09:22:39.230Z,1000.50
2022-10-21T09:23:39.214Z,1000.51
2022-10-21T09:24:39.186Z,1000.59
2022-10-21T09:25:39.167Z,1000.52
2022-10-21T09:26:39.139Z,1000.51
2022-10-21T09:27:54.994Z,1000.49
2022-10-21T09:28:39.096Z,1000.46
2022-10-21T09:29:39.073Z,1000.48
2022-10-21T09:30:39.067Z,1000.41
2022-10-21T09:31:39.031Z,1000.41
2022-10-21T09:32:39.004Z,1000.39
2022-10-21T09:33:38.987Z,1000.39
2022-10-21T09:34:38.972Z,1000.39
2022-10-21T09:35:38.941Z,1000.44
2022-10-21T09:36:38.918Z,1000.45
2022-10-21T09:37:39.081Z,1000.50
2022-10-21T09:38:38.876Z,1000.47
2022-10-21T09:39:38.849Z,1000.49
2022-10-21T09:40:38.830Z,1000.52
2022-10-21T09:41:38.806Z,1000.49
2022-10-21T09:42:47.913Z,1000.49
2022-10-21T09:43:38.760Z,1000.48
2022-10-21T09:44:38.740Z,1000.46
2022-10-21T09:45:38.718Z,1000.41
2022-10-21T09:46:38.713Z,1000.43
2022-10-21T09:47:38.669Z,1000.41
2022-10-21T09:48:59.029Z,1000.42
2022-10-21T09:50:07.020Z,1000.44
2022-10-21T09:50:38.606Z,1000.43
2022-10-21T09:51:38.580Z,1000.42
2022-10-21T09:52:38.903Z,1000.38
2022-10-21T09:53:38.539Z,1000.39
2022-10-21T09:54:38.516Z,1000.40
2022-10-21T09:55:38.495Z,1000.40
2022-10-21T09:56:38.472Z,1000.40
2022-10-21T09:57:38.451Z,1000.35
2022-10-21T09:58:38.430Z,1000.42
2022-10-21T09:59:38.443Z,1000.43
2022-10-21T10:00:38.385Z,1000.44
2022-10-21T10:01:38.424Z,1000.46
2022-10-21T10:02:38.694Z,1000.44
2022-10-21T10:03:38.323Z,1000.42
2022-10-21T10:04:38.295Z,1000.44
2022-10-21T10:05:38.297Z,1000.40
2022-10-21T10:06:38.252Z,1000.41
2022-10-21T10:07:38.229Z,1000.40
2022-10-21T10:08:38.331Z,1000.37
2022-10-21T10:09:38.186Z,1000.41
2022-10-21T10:10:38.162Z,1000.42
2022-10-21T10:11:38.144Z,1000.41
2022-10-21T10:12:38.480Z,1000.38
2022-10-21T10:13:38.099Z,1000.38
2022-10-21T10:14:38.076Z,1000.39
2022-10-21T10:15:38.053Z,1000.40
2022-10-21T10:16:38.033Z,1000.39
2022-10-21T10:17:38.010Z,1000.38
2022-10-21T10:18:38.007Z,1000.36
2022-10-21T10:19:37.968Z,1000.38
2022-10-21T10:20:37.946Z,1000.39
2022-10-21T10:21:37.927Z,1000.39
2022-10-21T10:22:38.246Z,1000.38
2022-10-21T10:23:37.879Z,1000.43
2022-10-21T10:24:37.858Z,1000.44
2022-10-21T10:25:37.839Z,1000.43
2022-10-21T10:26:37.818Z,1000.50
2022-10-21T10:27:37.792Z,1000.49
2022-10-21T10:28:37.843Z,1000.47
2022-10-21T10:29:37.746Z,1000.51
2022-10-21T10:30:37.725Z,1000.56
2022-10-21T10:31:37.703Z,1000.56
2022-10-21T10:32:38.010Z,1000.57
2022-10-21T10:33:37.658Z,1000.59
2022-10-21T10:34:37.751Z,1000.59
2022-10-21T10:35:37.633Z,1000.57
2022-10-21T10:36:37.597Z,1000.59
2022-10-21T10:37:37.659Z,1000.59
2022-10-21T10:38:37.553Z,1000.56
2022-10-21T10:39:37.530Z,1000.52
2022-10-21T10:40:37.509Z,1000.52
2022-10-21T10:41:37.489Z,1000.54
2022-10-21T10:42:38.007Z,1000.50
2022-10-21T10:43:37.442Z,1000.46
2022-10-21T10:44:37.423Z,1000.48
2022-10-21T10:45:37.399Z,1000.42
2022-10-21T10:46:37.442Z,1000.42
2022-10-21T10:47:37.798Z,1000.44
2022-10-21T10:48:37.336Z,1000.46
2022-10-21T10:49:37.315Z,1000.39
2022-10-21T10:50:37.416Z,1000.41
2022-10-21T10:51:37.271Z,1000.41
2022-10-21T10:52:37.249Z,1000.38
2022-10-21T10:53:37.227Z,1000.42
2022-10-21T10:54:37.205Z,1000.40
2022-10-21T10:55:37.228Z,1000.39
2022-10-21T10:56:37.166Z,1000.40
2022-10-21T10:57:44.384Z,1000.39
2022-10-21T10:58:37.120Z,1000.38
2022-10-21T10:59:37.101Z,1000.45
2022-10-21T11:00:37.076Z,1000.48
2022-10-21T11:01:37.140Z,1000.47
2022-10-21T11:02:37.033Z,1000.48
2022-10-21T11:03:41.147Z,1000.47
2022-10-21T11:04:36.994Z,1000.47
2022-10-21T11:05:36.972Z,1000.51
2022-10-21T11:06:37.068Z,1000.59
2022-10-21T11:07:37.349Z,1000.60
2022-10-21T11:08:36.936Z,1000.58
2022-10-21T11:09:36.883Z,1000.61
2022-10-21T11:10:36.863Z,1000.64
2022-10-21T11:11:36.840Z,1000.65
2022-10-21T11:12:36.818Z,1000.67
2022-10-21T11:13:40.053Z,1000.71
2022-10-21T11:14:36.776Z,1000.70
2022-10-21T11:15:36.757Z,1000.69
2022-10-21T11:16:45.157Z,1000.66
2022-10-21T11:17:36.955Z,1000.67
2022-10-21T11:18:36.694Z,1000.68
2022-10-21T11:19:36.669Z,1000.69
2022-10-21T11:20:36.652Z,1000.68
2022-10-21T11:21:36.626Z,1000.69
2022-10-21T11:22:36.714Z,1000.72
2022-10-21T11:23:36.583Z,1000.72
2022-10-21T11:24:36.564Z,1000.72
2022-10-21T11:25:36.541Z,1000.81
2022-10-21T11:26:36.521Z,1000.80
2022-10-21T11:27:36.740Z,1000.84
2022-10-21T11:28:36.479Z,1000.83
2022-10-21T11:29:36.455Z,1000.83
2022-10-21T11:30:36.434Z,1000.83
2022-10-21T11:31:48.584Z,1000.86
2022-10-21T11:32:36.391Z,1000.93
2022-10-21T11:33:36.371Z,1000.95
2022-10-21T11:34:36.352Z,1000.91
2022-10-21T11:35:36.327Z,1000.95
2022-10-21T11:36:36.307Z,1000.90
2022-10-21T11:37:36.644Z,1000.92
2022-10-21T11:38:36.387Z,1000.86
2022-10-21T11:39:36.242Z,1000.91
2022-10-21T11:40:36.224Z,1000.85
2022-10-21T11:41:36.203Z,1000.90
2022-10-21T11:42:36.484Z,1000.92
2022-10-21T11:43:36.156Z,1000.93
2022-10-21T11:44:36.140Z,1000.91
2022-10-21T11:45:36.113Z,1000.92
2022-10-21T11:46:36.110Z,1000.86
2022-10-21T11:47:36.072Z,1000.88
2022-10-21T11:48:36.055Z,1000.84
2022-10-21T11:49:37.325Z,1000.84
2022-10-21T11:50:36.010Z,1000.85
2022-10-21T11:51:35.988Z,1000.82
2022-10-21T11:52:36.046Z,1000.82
2022-10-21T11:53:35.945Z,1000.85
2022-10-21T11:54:36.037Z,1000.87
2022-10-21T11:55:35.902Z,1000.90
2022-10-21T11:56:35.887Z,1000.90
2022-10-21T11:57:35.863Z,1000.90
2022-10-21T11:58:35.839Z,1000.88
2022-10-21T11:59:35.818Z,1000.90
2022-10-21T12:00:35.799Z,1000.90
2022-10-21T12:01:35.779Z,1000.83
2022-10-21T12:02:35.897Z,1000.81
2022-10-21T12:03:35.733Z,1000.77
2022-10-21T12:04:35.713Z,1000.70
2022-10-21T12:05:35.690Z,1000.66
2022-10-21T12:06:35.668Z,1000.58
2022-10-21T12:07:35.650Z,1000.58
2022-10-21T12:08:38.336Z,1000.67
2022-10-21T12:09:35.608Z,1000.71
2022-10-21T12:10:35.698Z,1000.76
2022-10-21T12:11:35.565Z,1000.76
2022-10-21T12:12:35.545Z,1000.74
2022-10-21T12:13:35.522Z,1000.76